Time;durP1;ratioP1;P1;durP2;ratioP2;P2;SDS_P1;SDS_P2;PMS_P1;PMS_P2;Temp;Humidity;BMP_temperature;BMP_pressure;BME280_temperature;BME280_humidity;BME280_pressure;Samples;Min_cycle;Max_cycle;Signal;HPM_P1;HPM_P2
2023/03/02 00:01:26;;;;;;;21.98;10.07;;;;;;;6.04;100.00;100234.84;4963129;29;20461;-86
2023/03/02 00:03:57;;;;;;;24.13;8.10;;;;;;;6.11;100.00;100250.78;4941540;29;20496;-85
2023/03/02 00:06:28;;;;;;;16.63;8.30;;;;;;;6.20;100.00;100254.34;4942008;29;20043;-85
2023/03/02 00:08:54;;;;;;;26.27;8.65;;;;;;;6.39;100.00;100246.53;4939291;29;20466;-85
2023/03/02 00:11:20;;;;;;;18.65;8.32;;;;;;;6.17;100.00;100238.97;4938543;29;20099;-86
2023/03/02 00:13:46;;;;;;;30.05;8.90;;;;;;;6.26;100.00;100246.81;4939308;29;20067;-85
2023/03/02 00:16:12;;;;;;;20.58;8.48;;;;;;;6.14;100.00;100245.28;4938558;29;20055;-86
2023/03/02 00:18:40;;;;;;;20.52;9.70;;;;;;;6.20;100.00;100243.94;4932347;29;20047;-85
2023/03/02 00:21:09;;;;;;;21.27;8.50;;;;;;;6.27;100.00;100250.22;4932187;29;20491;-85
2023/03/02 00:23:36;;;;;;;25.95;9.57;;;;;;;6.30;100.00;100255.19;4925674;29;20035;-86
2023/03/02 00:26:05;;;;;;;21.27;8.55;;;;;;;6.09;100.00;100245.72;4947265;29;20040;-86
2023/03/02 00:28:31;;;;;;;18.65;9.15;;;;;;;6.12;100.00;100240.22;4932639;29;20044;-85
2023/03/02 00:30:56;;;;;;;21.95;8.50;;;;;;;6.06;100.00;100237.31;4949997;29;20054;-86
2023/03/02 00:33:22;;;;;;;18.95;8.23;;;;;;;6.11;100.00;100237.75;4943891;29;20043;-85
2023/03/02 00:35:51;;;;;;;18.23;7.15;;;;;;;6.12;100.00;100237.63;4930454;29;20400;-88
2023/03/02 00:38:19;;;;;;;19.75;6.85;;;;;;;6.22;100.00;100242.84;4950290;29;20130;-86
2023/03/02 00:40:45;;;;;;;15.77;6.50;;;;;;;6.32;100.00;100245.44;4946122;29;20085;-86
2023/03/02 00:43:11;;;;;;;18.08;5.55;;;;;;;6.19;100.00;100240.50;4925841;29;20121;-86
2023/03/02 00:45:37;;;;;;;20.35;5.47;;;;;;;6.33;100.00;100246.25;4932562;29;20054;-86
2023/03/02 00:48:03;;;;;;;17.40;5.53;;;;;;;6.08;100.00;100248.44;4933382;29;20043;-85
2023/03/02 00:50:28;;;;;;;17.27;6.03;;;;;;;5.88;100.00;100231.91;4945813;29;20477;-84
2023/03/02 00:52:54;;;;;;;19.35;6.18;;;;;;;6.16;100.00;100227.72;4927601;29;20402;-85
2023/03/02 00:55:19;;;;;;;19.67;4.88;;;;;;;6.16;100.00;100243.34;4945022;29;20057;-85
2023/03/02 00:57:53;;;;;;;13.10;4.43;;;;;;;6.13;100.00;100235.81;4945916;29;20027;-85
2023/03/02 01:00:21;;;;;;;16.15;4.63;;;;;;;6.22;100.00;100245.44;4935826;29;20054;-86
2023/03/02 01:02:48;;;;;;;12.27;5.88;;;;;;;6.00;100.00;100243.88;4943348;29;20035;-86
2023/03/02 01:05:14;;;;;;;11.75;4.55;;;;;;;6.25;100.00;100241.72;4926765;29;20163;-86
2023/03/02 01:07:40;;;;;;;11.73;4.40;;;;;;;6.40;100.00;100240.34;4927171;29;20068;-86
2023/03/02 01:10:06;;;;;;;21.17;5.03;;;;;;;6.25;100.00;100239.13;4944707;29;20090;-85
2023/03/02 01:12:31;;;;;;;15.23;4.93;;;;;;;6.14;100.00;100235.69;4933301;29;20036;-84
2023/03/02 01:14:58;;;;;;;17.48;4.90;;;;;;;6.31;100.00;100241.19;4944308;29;20050;-85
2023/03/02 01:17:24;;;;;;;13.40;4.85;;;;;;;6.21;100.00;100235.13;4948384;29;20063;-85
2023/03/02 01:19:50;;;;;;;13.00;4.15;;;;;;;6.19;100.00;100232.69;4936499;29;20447;-85
2023/03/02 01:22:17;;;;;;;19.38;5.88;;;;;;;6.33;100.00;100241.88;4932656;29;20044;-85
2023/03/02 01:24:42;;;;;;;18.35;4.60;;;;;;;6.33;100.00;100241.88;4937247;29;20066;-85
2023/03/02 01:27:08;;;;;;;14.13;5.38;;;;;;;6.27;100.00;100239.81;4936998;29;20032;-84
2023/03/02 01:29:35;;;;;;;18.92;5.78;;;;;;;6.46;100.00;100241.59;4935773;29;20566;-85
2023/03/02 01:32:01;;;;;;;13.75;4.90;;;;;;;6.25;100.00;100229.53;4936738;29;20032;-85
2023/03/02 01:34:27;;;;;;;18.35;5.38;;;;;;;6.25;100.00;100234.75;4936659;29;20182;-86
2023/03/02 01:36:55;;;;;;;23.30;5.00;;;;;;;6.41;100.00;100226.34;4936613;29;20070;-86
2023/03/02 01:39:23;;;;;;;17.95;4.78;;;;;;;6.45;100.00;100224.31;4937881;29;20016;-86
2023/03/02 01:41:51;;;;;;;13.35;6.00;;;;;;;6.46;100.00;100227.72;4936276;29;20075;-85
2023/03/02 01:44:45;;;;;;;17.48;5.75;;;;;;;6.76;100.00;100233.75;4936352;29;20051;-85
2023/03/02 01:47:16;;;;;;;15.25;5.65;;;;;;;6.55;100.00;100222.50;4936859;29;20032;-85
2023/03/02 01:49:47;;;;;;;12.50;5.00;;;;;;;6.60;100.00;100223.88;4950157;29;20498;-86
2023/03/02 01:52:14;;;;;;;17.35;4.93;;;;;;;6.49;100.00;100214.44;4935900;29;20042;-86
2023/03/02 01:54:42;;;;;;;14.98;4.22;;;;;;;6.59;100.00;100215.22;4934779;29;20043;-86
2023/03/02 01:57:10;;;;;;;12.95;4.45;;;;;;;6.55;100.00;100206.03;4935075;29;20050;-87
2023/03/02 01:59:40;;;;;;;13.70;4.57;;;;;;;6.53;100.00;100202.75;4935141;29;20070;-86
2023/03/02 02:02:10;;;;;;;17.88;4.95;;;;;;;6.52;100.00;100206.31;4952145;29;20063;-87
2023/03/02 02:04:38;;;;;;;20.88;5.32;;;;;;;6.61;100.00;100195.03;4938186;29;20100;-85
2023/03/02 02:07:07;;;;;;;18.35;7.30;;;;;;;6.60;100.00;100198.59;4939380;29;20040;-86
2023/03/02 02:09:42;;;;;;;19.83;9.40;;;;;;;6.67;100.00;100194.47;4938375;29;20050;-86
2023/03/02 02:12:17;;;;;;;25.50;6.25;;;;;;;6.54;100.00;100196.56;4936871;29;20498;-87
2023/03/02 02:14:43;;;;;;;25.05;9.07;;;;;;;6.60;100.00;100193.41;4937627;29;20054;-86
2023/03/02 02:17:10;;;;;;;19.50;5.40;;;;;;;6.61;100.00;100200.25;4938002;29;20479;-88
2023/03/02 02:19:50;;;;;;;24.63;6.15;;;;;;;6.66;100.00;100198.03;4954094;29;20055;-88
2023/03/02 02:22:32;;;;;;;15.82;5.60;;;;;;;6.65;100.00;100185.97;4952230;29;20040;-88
2023/03/02 02:25:02;;;;;;;16.33;5.60;;;;;;;6.63;100.00;100198.31;4936843;29;20044;-87
2023/03/02 02:27:32;;;;;;;15.15;5.57;;;;;;;6.38;100.00;100182.31;4937712;29;20083;-88
2023/03/02 02:29:59;;;;;;;15.77;6.20;;;;;;;6.34;100.00;100183.53;4938316;29;20051;-87
2023/03/02 02:32:29;;;;;;;25.90;5.80;;;;;;;6.40;100.00;100172.56;4928995;29;20039;-89
2023/03/02 02:35:08;;;;;;;17.45;6.45;;;;;;;6.46;100.00;100170.34;4939861;29;20079;-88
2023/03/02 02:37:40;;;;;;;17.10;6.18;;;;;;;6.48;100.00;100171.03;4936996;29;20032;-86
2023/03/02 02:40:12;;;;;;;17.13;6.13;;;;;;;6.60;100.00;100171.72;4953610;29;20039;-86
2023/03/02 02:42:44;;;;;;;22.60;7.15;;;;;;;6.50;100.00;100169.13;4937049;29;20110;-87
2023/03/02 02:45:36;;;;;;;20.80;6.03;;;;;;;6.57;100.00;100172.81;4937656;29;20047;-88
2023/03/02 02:48:01;;;;;;;18.40;5.72;;;;;;;6.49;100.00;100172.69;4937394;29;20106;-87
2023/03/02 02:50:33;;;;;;;11.93;5.90;;;;;;;6.67;100.00;100163.16;4938063;29;20119;-87
2023/03/02 02:53:11;;;;;;;18.42;6.60;;;;;;;6.49;100.00;100168.28;4937017;29;20043;-87
2023/03/02 02:55:38;;;;;;;23.77;6.70;;;;;;;6.51;100.00;100162.94;4938096;29;20540;-87
2023/03/02 02:58:42;;;;;;;21.60;6.72;;;;;;;6.53;100.00;100166.22;4940633;29;20520;-88
2023/03/02 03:01:11;;;;;;;;;;;;;;;6.39;100.00;100159.66;4936173;29;20078;-86
2023/03/02 03:03:38;;;;;;;12.93;5.25;;;;;;;6.39;100.00;100160.47;4956150;29;19925;-86
2023/03/02 03:06:12;;;;;;;19.23;4.82;;;;;;;6.35;100.00;100166.94;4940735;29;20098;-86
2023/03/02 03:09:01;;;;;;;14.32;5.32;;;;;;;6.53;100.00;100161.00;4955292;29;20114;-86
2023/03/02 03:11:30;;;;;;;16.40;4.78;;;;;;;6.30;100.00;100148.28;4941345;29;20039;-87
2023/03/02 03:14:09;;;;;;;13.75;4.60;;;;;;;6.42;100.00;100154.16;4940779;29;20040;-87
2023/03/02 03:16:36;;;;;;;19.60;4.80;;;;;;;6.45;100.00;100158.25;4946186;29;20526;-87
2023/03/02 03:19:17;;;;;;;14.45;5.20;;;;;;;6.21;100.00;100136.06;4950304;29;20039;-86
2023/03/02 03:21:47;;;;;;;13.85;4.90;;;;;;;6.11;100.00;100131.69;4934642;29;20046;-88
2023/03/02 03:24:12;;;;;;;13.98;5.40;;;;;;;6.11;100.00;100147.34;4939082;29;20051;-88
2023/03/02 03:26:40;;;;;;;20.40;6.22;;;;;;;6.10;100.00;100137.03;4954920;29;20042;-87
2023/03/02 03:29:06;;;;;;;22.33;6.50;;;;;;;6.32;100.00;100132.47;4948738;29;20046;-86
2023/03/02 03:31:32;;;;;;;17.70;5.63;;;;;;;6.19;100.00;100138.00;4947915;29;20051;-89
2023/03/02 03:34:00;;;;;;;25.63;6.55;;;;;;;6.21;100.00;100149.94;4932670;29;20046;-87
2023/03/02 03:36:30;;;;;;;23.08;7.47;;;;;;;6.40;100.00;100138.66;4949012;29;20501;-86
2023/03/02 03:38:56;;;;;;;18.35;6.13;;;;;;;6.39;100.00;100138.81;4948250;29;20044;-87
2023/03/02 03:41:22;;;;;;;23.67;6.43;;;;;;;6.50;100.00;100140.44;4944575;29;20044;-87
2023/03/02 03:43:48;;;;;;;17.65;6.03;;;;;;;6.40;100.00;100141.25;4949242;29;20521;-85
2023/03/02 03:46:13;;;;;;;16.27;5.63;;;;;;;6.26;100.00;100142.50;4928921;29;20198;-86
2023/03/02 03:48:39;;;;;;;19.48;5.63;;;;;;;6.45;100.00;100137.41;4944424;29;20040;-87
2023/03/02 03:51:05;;;;;;;13.00;5.72;;;;;;;6.45;100.00;100140.00;4947846;29;20505;-86
2023/03/02 03:53:32;;;;;;;23.02;7.57;;;;;;;6.45;100.00;100138.25;4934212;29;20031;-85
2023/03/02 03:55:57;;;;;;;15.50;6.22;;;;;;;6.41;100.00;100137.69;4950049;29;20039;-85
2023/03/02 03:58:24;;;;;;;16.02;5.57;;;;;;;6.55;100.00;100140.81;4951466;29;20110;-86
2023/03/02 04:00:51;;;;;;;14.70;6.05;;;;;;;6.51;100.00;100139.47;4936306;29;20031;-84
2023/03/02 04:03:18;;;;;;;19.85;5.95;;;;;;;6.18;100.00;100136.34;4949441;29;20087;-86
2023/03/02 04:05:43;;;;;;;12.85;5.80;;;;;;;6.43;100.00;100143.56;4955143;29;20460;-85
2023/03/02 04:08:09;;;;;;;16.13;5.85;;;;;;;6.41;100.00;100140.28;4942117;29;20094;-87
2023/03/02 04:10:35;;;;;;;19.15;6.80;;;;;;;6.46;100.00;100136.44;4945373;29;20031;-88
2023/03/02 04:13:01;;;;;;;17.15;6.75;;;;;;;6.49;100.00;100136.19;4952888;29;20048;-86
2023/03/02 04:15:29;;;;;;;22.67;6.10;;;;;;;6.41;100.00;100140.28;4950721;29;20205;-87
2023/03/02 04:17:55;;;;;;;15.55;5.80;;;;;;;6.42;100.00;100139.31;4948297;29;20109;-85
2023/03/02 04:20:21;;;;;;;20.70;6.03;;;;;;;6.37;100.00;100141.53;4929328;29;20447;-86
2023/03/02 04:22:49;;;;;;;15.73;6.03;;;;;;;6.37;100.00;100140.69;4946922;29;20051;-86
2023/03/02 04:25:20;;;;;;;15.55;6.97;;;;;;;6.47;100.00;100136.31;4933484;29;20124;-87
2023/03/02 04:27:50;;;;;;;18.52;7.60;;;;;;;6.49;100.00;100133.56;4930128;29;20513;-85
2023/03/02 04:30:19;;;;;;;21.25;6.65;;;;;;;6.48;100.00;100132.72;4951535;29;20043;-87
2023/03/02 04:32:47;;;;;;;15.55;7.13;;;;;;;6.48;100.00;100137.13;4948308;29;20039;-86
2023/03/02 04:35:14;;;;;;;22.70;10.82;;;;;;;6.66;100.00;100135.41;4927693;29;20726;-86
2023/03/02 04:37:41;;;;;;;24.40;8.68;;;;;;;6.65;100.00;100127.75;4946104;29;20043;-87
2023/03/02 04:40:08;;;;;;;21.52;10.18;;;;;;;6.60;100.00;100141.22;4932129;29;20040;-87
2023/03/02 04:42:33;;;;;;;21.40;11.23;;;;;;;6.37;100.00;100145.91;4923324;29;20044;-87
2023/03/02 04:44:59;;;;;;;23.45;12.57;;;;;;;6.54;100.00;100139.19;4942201;29;20057;-85
2023/03/02 04:47:26;;;;;;;18.00;8.82;;;;;;;6.58;100.00;100148.38;4945853;29;20051;-85
2023/03/02 04:49:53;;;;;;;20.92;8.20;;;;;;;6.61;100.00;100145.47;4949541;29;20036;-87
2023/03/02 04:52:22;;;;;;;19.40;8.77;;;;;;;6.57;100.00;100144.09;4946707;29;20039;-84
2023/03/02 04:54:48;;;;;;;22.17;9.13;;;;;;;6.54;100.00;100147.00;4948290;29;20038;-85
2023/03/02 04:57:16;;;;;;;14.70;8.30;;;;;;;6.65;100.00;100146.81;4947617;29;20123;-85
2023/03/02 04:59:41;;;;;;;19.60;7.97;;;;;;;6.58;100.00;100153.59;4926908;29;20047;-86
2023/03/02 05:02:07;;;;;;;16.52;7.45;;;;;;;6.53;100.00;100153.19;4930537;29;20148;-85
2023/03/02 05:04:33;;;;;;;16.38;7.88;;;;;;;6.61;100.00;100155.91;4930362;29;20039;-85
2023/03/02 05:06:58;;;;;;;19.33;8.48;;;;;;;6.56;100.00;100150.28;4941731;29;20105;-85
2023/03/02 05:09:29;;;;;;;21.80;8.93;;;;;;;6.51;100.00;100149.91;4950350;29;20102;-87
2023/03/02 05:11:57;;;;;;;15.85;8.25;;;;;;;6.63;100.00;100153.97;4929384;29;20109;-86
2023/03/02 05:14:24;;;;;;;20.05;9.05;;;;;;;6.53;100.00;100154.00;4942802;29;20074;-85
2023/03/02 05:16:50;;;;;;;16.85;8.02;;;;;;;6.34;100.00;100152.25;4946285;29;20060;-86
2023/03/02 05:19:16;;;;;;;17.73;8.02;;;;;;;6.47;100.00;100151.13;4951422;28;20050;-86
2023/03/02 05:21:41;;;;;;;17.85;7.82;;;;;;;6.46;100.00;100152.09;4951935;29;20082;-85
2023/03/02 05:24:07;;;;;;;23.95;9.05;;;;;;;6.42;100.00;100143.75;4935930;29;20044;-84
2023/03/02 05:26:33;;;;;;;17.00;8.45;;;;;;;6.47;100.00;100156.34;4935345;29;20048;-85
2023/03/02 05:28:58;;;;;;;16.48;8.02;;;;;;;6.48;100.00;100152.75;4936261;29;20099;-85
2023/03/02 05:31:33;;;;;;;14.20;8.20;;;;;;;6.59;100.00;100144.78;4936304;29;20031;-84
2023/03/02 05:33:59;;;;;;;17.30;7.60;;;;;;;6.61;100.00;100155.91;4936104;29;20046;-85
2023/03/02 05:36:25;;;;;;;16.10;8.25;;;;;;;6.57;100.00;100157.16;4950927;29;20091;-85
2023/03/02 05:38:50;;;;;;;15.25;7.75;;;;;;;6.64;100.00;100153.00;4951209;29;20078;-86
2023/03/02 05:41:16;;;;;;;23.75;9.18;;;;;;;6.65;100.00;100157.25;4940841;29;20504;-86
2023/03/02 05:43:41;;;;;;;19.33;7.97;;;;;;;6.67;100.00;100155.34;4936744;29;20043;-87
2023/03/02 05:46:07;;;;;;;19.55;8.38;;;;;;;6.65;100.00;100157.25;4935168;29;20051;-86
2023/03/02 05:48:32;;;;;;;18.67;8.23;;;;;;;6.76;100.00;100158.06;4936992;29;20040;-85
2023/03/02 05:50:58;;;;;;;17.15;8.00;;;;;;;6.76;100.00;100161.50;4935615;29;20141;-86
2023/03/02 05:53:26;;;;;;;24.70;8.45;;;;;;;6.69;100.00;100161.25;4951793;29;20050;-87
2023/03/02 05:55:53;;;;;;;18.67;9.32;;;;;;;6.74;100.00;100160.00;4936490;29;20094;-85
2023/03/02 05:58:19;;;;;;;20.75;9.50;;;;;;;6.77;100.00;100157.09;4925864;29;20064;-86
2023/03/02 06:00:46;;;;;;;19.25;9.15;;;;;;;6.78;100.00;100158.75;4951964;29;20052;-86
2023/03/02 06:03:12;;;;;;;21.58;9.02;;;;;;;6.77;100.00;100160.53;4935990;29;20130;-86
2023/03/02 06:05:38;;;;;;;20.92;9.20;;;;;;;6.77;100.00;100154.50;4934451;29;20040;-86
2023/03/02 06:08:04;;;;;;;18.35;9.73;;;;;;;6.77;100.00;100164.94;4951890;28;20434;-87
2023/03/02 06:10:30;;;;;;;20.13;9.48;;;;;;;6.69;100.00;100161.25;4936555;29;20126;-86
2023/03/02 06:12:56;;;;;;;28.63;13.70;;;;;;;6.82;100.00;100166.16;4937334;29;20044;-86
2023/03/02 06:15:22;;;;;;;23.77;11.70;;;;;;;6.88;100.00;100169.16;4938927;29;20079;-85
2023/03/02 06:17:48;;;;;;;25.23;10.43;;;;;;;6.88;100.00;100175.22;4951859;29;20043;-85
2023/03/02 06:20:14;;;;;;;19.85;10.23;;;;;;;6.81;100.00;100166.28;4942998;29;20469;-84
2023/03/02 06:22:44;;;;;;;21.50;10.75;;;;;;;6.91;100.00;100168.88;4943925;29;20054;-85
2023/03/02 06:25:16;;;;;;;23.75;10.70;;;;;;;6.99;100.00;100167.19;4944792;29;20043;-85
2023/03/02 06:27:42;;;;;;;25.42;11.48;;;;;;;6.90;100.00;100168.06;4931148;29;20071;-84
2023/03/02 06:30:11;;;;;;;22.63;11.15;;;;;;;6.92;100.00;100167.91;4927229;29;20043;-84
2023/03/02 06:32:37;;;;;;;25.92;10.73;;;;;;;6.83;100.00;100167.81;4940398;28;20115;-84
2023/03/02 06:35:04;;;;;;;23.20;10.30;;;;;;;6.87;100.00;100168.31;4949772;29;20532;-85
2023/03/02 06:37:31;;;;;;;25.40;10.18;;;;;;;6.79;100.00;100176.06;4947201;29;20067;-81
2023/03/02 06:39:59;;;;;;;30.98;11.35;;;;;;;6.63;100.00;100180.06;4929872;29;20054;-83
2023/03/02 06:42:26;;;;;;;23.85;11.10;;;;;;;6.65;100.00;100175.53;4946032;29;20072;-84
2023/03/02 06:44:53;;;;;;;33.67;12.02;;;;;;;6.64;100.00;100184.31;4947915;29;20097;-84
2023/03/02 06:47:20;;;;;;;21.65;11.60;;;;;;;6.67;100.00;100189.25;4945472;29;20048;-84
2023/03/02 06:49:45;;;;;;;22.73;11.65;;;;;;;6.61;100.00;100189.81;4947697;29;20039;-85
2023/03/02 06:52:12;;;;;;;25.38;11.13;;;;;;;6.61;100.00;100183.78;4949510;29;20047;-88
2023/03/02 06:54:38;;;;;;;25.13;12.35;;;;;;;6.56;100.00;100197.25;4930528;29;21057;-85
2023/03/02 06:57:03;;;;;;;21.45;10.73;;;;;;;6.62;100.00;100194.06;4950854;29;20034;-85
2023/03/02 06:59:29;;;;;;;30.35;15.85;;;;;;;6.62;100.00;100191.47;4929382;29;20043;-87
2023/03/02 07:01:54;;;;;;;26.92;14.35;;;;;;;6.70;100.00;100196.81;4947968;29;20059;-88
2023/03/02 07:04:20;;;;;;;43.28;21.17;;;;;;;6.63;100.00;100198.31;4948163;29;20047;-87
2023/03/02 07:06:46;;;;;;;31.42;13.73;;;;;;;6.57;100.00;100198.91;4936484;29;20043;-90
2023/03/02 07:09:12;;;;;;;36.17;19.40;;;;;;;6.54;100.00;100194.78;4951555;29;20414;-86
2023/03/02 07:11:38;;;;;;;38.70;17.80;;;;;;;6.46;100.00;100206.84;4948114;29;20043;-88
2023/03/02 07:14:03;;;;;;;27.30;16.80;;;;;;;6.42;100.00;100199.31;4943116;29;20514;-86
2023/03/02 07:16:30;;;;;;;30.25;14.25;;;;;;;6.48;100.00;100207.53;4945380;29;20098;-89
2023/03/02 07:18:55;;;;;;;29.45;17.25;;;;;;;6.50;100.00;100210.84;4942398;29;20043;-90
2023/03/02 07:21:21;;;;;;;17.38;10.02;;;;;;;6.45;100.00;100215.66;4958171;29;20053;-89
2023/03/02 07:23:47;;;;;;;22.10;12.60;;;;;;;6.60;100.00;100216.88;4950637;29;20051;-89
2023/03/02 07:26:13;;;;;;;17.95;10.98;;;;;;;6.68;100.00;100217.00;4949196;29;20067;-88
2023/03/02 07:28:40;;;;;;;18.08;9.40;;;;;;;6.70;100.00;100222.06;4942066;29;20119;-90
2023/03/02 07:31:07;;;;;;;28.50;13.13;;;;;;;6.92;100.00;100217.50;4943163;29;20030;-90
2023/03/02 07:33:34;;;;;;;27.73;14.05;;;;;;;6.96;100.00;100209.25;4940760;29;20099;-89
2023/03/02 07:35:59;;;;;;;23.58;12.13;;;;;;;6.94;100.00;100208.56;4958245;29;20059;-87
2023/03/02 07:38:25;;;;;;;21.00;10.32;;;;;;;6.90;100.00;100219.44;4940584;29;20048;-85
2023/03/02 07:40:51;;;;;;;18.50;11.00;;;;;;;7.02;100.00;100207.03;4943218;29;20173;-89
2023/03/02 07:43:18;;;;;;;23.88;9.13;;;;;;;7.11;100.00;100207.00;4967103;28;20058;-90
2023/03/02 07:45:44;;;;;;;17.23;10.63;;;;;;;7.18;100.00;100217.69;4950580;29;20123;-90
2023/03/02 07:48:10;;;;;;;24.92;14.82;;;;;;;7.02;100.00;100196.59;4969195;29;20048;-91
2023/03/02 07:50:36;;;;;;;16.23;10.82;;;;;;;6.99;100.00;100195.91;4965710;29;20108;-91
2023/03/02 07:53:02;;;;;;;17.98;10.52;;;;;;;7.13;100.00;100210.28;4951160;29;20063;-91
2023/03/02 07:55:27;;;;;;;18.40;10.30;;;;;;;7.18;100.00;100214.28;4952069;29;20055;-88
2023/03/02 07:57:54;;;;;;;16.08;9.25;;;;;;;7.24;100.00;100209.28;4950574;29;20498;-88
2023/03/02 08:00:26;;;;;;;11.43;7.60;;;;;;;7.37;100.00;100211.59;4952923;29;20066;-88
2023/03/02 08:07:38;;;;;;;14.13;7.28;;;;;;;7.79;100.00;100236.38;4919048;29;20120;-92
2023/03/02 08:10:14;;;;;;;18.20;7.78;;;;;;;7.53;100.00;100231.84;4916165;29;20064;-90
2023/03/02 08:12:44;;;;;;;14.30;6.25;;;;;;;7.44;100.00;100214.41;4903234;29;20447;-84
2023/03/02 08:15:14;;;;;;;8.30;5.40;;;;;;;7.17;100.00;100229.09;4926562;29;20044;-86
2023/03/02 08:17:40;;;;;;;10.13;5.07;;;;;;;7.28;100.00;100215.88;4929203;29;20455;-86
2023/03/02 08:20:07;;;;;;;10.50;5.63;;;;;;;7.45;100.00;100218.69;4932750;29;20047;-86
2023/03/02 08:22:33;;;;;;;9.60;5.72;;;;;;;7.50;100.00;100220.84;4917496;29;20048;-87
2023/03/02 08:24:58;;;;;;;9.20;5.57;;;;;;;7.46;100.00;100224.75;4913937;29;20521;-85
2023/03/02 08:27:24;;;;;;;7.72;5.22;;;;;;;7.46;100.00;100204.66;4922178;29;20110;-84
2023/03/02 08:29:52;;;;;;;11.55;5.03;;;;;;;7.63;100.00;100230.97;4904586;29;20054;-87
2023/03/02 08:33:05;;;;;;;6.65;4.85;;;;;;;7.93;100.00;100236.88;4920959;29;20412;-87
2023/03/02 08:35:31;;;;;;;8.43;4.90;;;;;;;7.91;100.00;100233.56;4901760;29;20068;-85
2023/03/02 08:37:58;;;;;;;6.88;5.00;;;;;;;7.89;100.00;100228.47;4928716;29;20079;-83
2023/03/02 08:40:24;;;;;;;8.50;5.10;;;;;;;8.01;100.00;100234.31;4928340;29;20455;-83
2023/03/02 08:42:55;;;;;;;5.88;4.65;;;;;;;8.17;100.00;100243.31;4938940;29;20043;-83
2023/03/02 08:45:24;;;;;;;7.03;5.32;;;;;;;8.13;100.00;100243.59;4921823;29;20095;-85
2023/03/02 08:47:53;;;;;;;9.10;5.85;;;;;;;8.34;100.00;100239.88;4937080;29;20040;-84
2023/03/02 08:50:19;;;;;;;7.60;6.03;;;;;;;8.38;100.00;100243.00;4928837;29;20057;-85
2023/03/02 08:52:45;;;;;;;8.07;5.82;;;;;;;8.38;100.00;100235.97;4928922;29;20106;-82
2023/03/02 08:55:11;;;;;;;9.60;6.85;;;;;;;8.52;100.00;100236.44;4947268;28;20067;-83
2023/03/02 08:57:36;;;;;;;8.93;6.03;;;;;;;8.66;100.00;100238.53;4945401;29;20094;-84
2023/03/02 09:00:07;;;;;;;9.55;7.57;;;;;;;8.88;100.00;100240.78;4947205;29;20044;-83
2023/03/02 09:02:33;;;;;;;8.82;6.68;;;;;;;8.91;100.00;100236.06;4938811;29;20043;-85
2023/03/02 09:05:01;;;;;;;9.43;7.07;;;;;;;9.00;100.00;100235.13;4928016;29;20040;-84
2023/03/02 09:07:26;;;;;;;10.98;7.75;;;;;;;9.08;100.00;100233.56;4938498;29;20043;-85
2023/03/02 09:09:52;;;;;;;9.40;8.10;;;;;;;8.92;100.00;100227.25;4938382;29;20044;-84
2023/03/02 09:12:18;;;;;;;11.23;8.02;;;;;;;8.85;100.00;100231.47;4926168;29;20095;-83
2023/03/02 09:14:43;;;;;;;11.40;8.23;;;;;;;8.97;100.00;100235.44;4946057;29;20051;-85
2023/03/02 09:17:11;;;;;;;11.98;9.18;;;;;;;8.82;100.00;100211.63;4928930;29;20064;-84
2023/03/02 09:19:40;;;;;;;10.65;9.23;;;;;;;8.90;100.00;100228.38;4932596;29;20048;-82
2023/03/02 09:22:07;;;;;;;11.10;9.35;;;;;;;8.93;100.00;100231.50;4935334;29;20039;-84
2023/03/02 09:24:34;;;;;;;12.55;9.77;;;;;;;8.54;100.00;100230.06;4935706;29;20078;-84
2023/03/02 09:27:00;;;;;;;14.73;9.70;;;;;;;8.44;100.00;100234.56;4938110;29;20039;-85
2023/03/02 09:29:26;;;;;;;12.95;9.85;;;;;;;8.22;100.00;100236.66;4953344;29;20036;-86
2023/03/02 09:31:51;;;;;;;12.30;9.55;;;;;;;8.63;100.00;100238.81;4953383;29;20043;-88
2023/03/02 09:34:17;;;;;;;12.80;10.77;;;;;;;9.14;100.00;100232.94;4938814;29;20048;-86
2023/03/02 09:36:45;;;;;;;12.35;10.20;;;;;;;9.58;100.00;100243.28;4953291;29;20054;-86
2023/03/02 09:39:11;;;;;;;11.18;9.57;;;;;;;9.67;100.00;100243.34;4952034;29;20514;-87
2023/03/02 09:41:39;;;;;;;12.00;10.43;;;;;;;9.32;100.00;100240.72;4938540;29;20043;-85
2023/03/02 09:44:23;;;;;;;12.10;10.18;;;;;;;9.22;100.00;100238.19;4938362;29;20044;-86
2023/03/02 09:46:51;;;;;;;;;;;;;;;9.15;100.00;100247.66;4938791;29;20505;-85
2023/03/02 09:49:49;;;;;;;7.65;6.85;;;;;;;8.95;100.00;100241.84;4938345;29;19927;-87
2023/03/02 09:52:34;;;;;;;7.70;6.88;;;;;;;9.12;100.00;100242.75;4936168;29;20043;-87
2023/03/02 09:55:18;;;;;;;9.20;7.70;;;;;;;9.33;100.00;100236.31;4938351;29;20111;-86
2023/03/02 09:57:46;;;;;;;12.07;8.07;;;;;;;9.08;100.00;100247.47;4937505;29;20050;-85
2023/03/02 10:00:22;;;;;;;8.57;7.22;;;;;;;9.24;100.00;100246.75;4938972;29;20044;-86
2023/03/02 10:02:55;;;;;;;8.90;6.93;;;;;;;9.04;100.00;100258.41;4936743;29;20039;-85
2023/03/02 10:05:26;;;;;;;7.70;6.23;;;;;;;9.25;100.00;100243.16;4934111;29;20051;-86
2023/03/02 10:07:51;;;;;;;7.78;6.70;;;;;;;9.02;100.00;100249.88;4941677;29;20491;-85
2023/03/02 10:10:17;;;;;;;9.52;7.00;;;;;;;9.03;100.00;100256.75;4941187;29;20055;-85
2023/03/02 10:12:58;;;;;;;9.60;6.13;;;;;;;9.24;100.00;100249.38;4942631;29;20035;-86
2023/03/02 10:15:34;;;;;;;8.05;6.32;;;;;;;9.30;100.00;100253.16;4942121;29;20407;-86
2023/03/02 10:18:23;;;;;;;10.98;5.90;;;;;;;9.17;100.00;100255.38;4938079;29;20052;-86
2023/03/02 10:20:58;;;;;;;7.53;6.32;;;;;;;9.41;100.00;100262.53;4932723;29;20051;-86
2023/03/02 10:23:36;;;;;;;7.70;5.68;;;;;;;9.56;100.00;100255.72;4942184;29;20052;-84
2023/03/02 10:26:20;;;;;;;7.90;6.70;;;;;;;9.18;100.00;100262.28;4940921;29;20146;-86
2023/03/02 10:28:48;;;;;;;8.15;7.35;;;;;;;9.06;100.00;100266.94;4939617;29;20066;-86
2023/03/02 10:31:28;;;;;;;7.10;6.40;;;;;;;9.08;100.00;100275.47;4941926;29;20391;-85
2023/03/02 10:33:54;;;;;;;7.90;7.10;;;;;;;9.40;100.00;100266.13;4941036;29;20042;-85
2023/03/02 10:36:29;;;;;;;7.00;5.72;;;;;;;9.49;100.00;100270.47;4940740;29;20043;-86
2023/03/02 10:38:56;;;;;;;7.68;6.30;;;;;;;9.66;99.81;100275.78;4947422;29;20044;-87
2023/03/02 10:41:27;;;;;;;11.50;7.93;;;;;;;9.79;97.91;100268.25;4940302;29;20036;-85
2023/03/02 10:43:59;;;;;;;14.85;9.85;;;;;;;9.81;98.06;100266.31;4940646;29;20055;-87
2023/03/02 10:46:25;;;;;;;12.18;8.95;;;;;;;9.54;96.17;100273.41;4937550;29;20047;-85
2023/03/02 10:48:55;;;;;;;10.88;8.73;;;;;;;9.52;97.15;100259.66;4939544;29;20091;-88
2023/03/02 10:51:29;;;;;;;12.32;9.05;;;;;;;9.75;95.74;100263.53;4934042;29;20079;-85
2023/03/02 10:54:10;;;;;;;10.65;8.73;;;;;;;10.12;95.53;100278.03;4936317;29;20103;-86
2023/03/02 10:56:36;;;;;;;10.60;8.00;;;;;;;10.20;96.19;100283.31;4937644;29;20039;-87
2023/03/02 10:59:24;;;;;;;9.57;7.88;;;;;;;10.28;94.71;100287.75;4938549;29;20052;-86
2023/03/02 11:02:02;;;;;;;10.50;8.65;;;;;;;10.31;94.42;100283.97;4940725;29;20035;-86
2023/03/02 11:04:31;;;;;;;15.20;9.45;;;;;;;10.49;94.04;100289.13;4933063;29;20043;-88
2023/03/02 11:07:08;;;;;;;11.73;9.85;;;;;;;10.30;92.47;100288.41;4938525;29;20043;-87
2023/03/02 11:09:33;;;;;;;13.68;10.68;;;;;;;10.50;92.87;100283.69;4936794;29;20051;-86
2023/03/02 11:12:00;;;;;;;14.82;9.73;;;;;;;10.65;92.64;100283.88;4939331;29;20024;-85
2023/03/02 11:14:28;;;;;;;11.60;9.05;;;;;;;10.28;90.75;100270.19;4939634;29;20095;-87
2023/03/02 11:16:54;;;;;;;9.73;8.73;;;;;;;10.40;90.98;100278.59;4940268;29;20057;-85
2023/03/02 11:19:36;;;;;;;12.10;9.63;;;;;;;10.77;91.78;100288.78;4939810;29;20465;-85
2023/03/02 11:22:32;;;;;;;12.20;9.23;;;;;;;10.52;90.71;100275.66;4939812;29;20087;-87
2023/03/02 11:25:02;;;;;;;9.55;8.65;;;;;;;10.24;91.05;100273.31;4936920;29;20523;-85
2023/03/02 11:27:32;;;;;;;9.88;8.55;;;;;;;10.33;91.29;100282.81;4945840;29;20048;-85
2023/03/02 11:30:18;;;;;;;10.70;7.93;;;;;;;10.43;90.63;100282.69;4938719;29;20059;-86